地図

経路データ

SID SEASON NUMBER BASIN SUBBASIN NAME ISO_TIME NATURE LAT LON WMO_WIND WMO_PRES WMO_AGENCY TRACK_TYPE DIST2LAND LANDFALL IFLAG USA_AGENCY USA_ATCF_ID USA_LAT USA_LON USA_RECORD USA_STATUS USA_WIND USA_PRES USA_SSHS USA_R34_NE USA_R34_SE USA_R34_SW USA_R34_NW USA_R50_NE USA_R50_SE USA_R50_SW USA_R50_NW USA_R64_NE USA_R64_SE USA_R64_SW USA_R64_NW USA_POCI USA_ROCI USA_RMW USA_EYE TOKYO_LAT TOKYO_LON TOKYO_GRADE TOKYO_WIND TOKYO_PRES TOKYO_R50_DIR TOKYO_R50_LONG TOKYO_R50_SHORT TOKYO_R30_DIR TOKYO_R30_LONG TOKYO_R30_SHORT TOKYO_LAND CMA_LAT CMA_LON CMA_CAT CMA_WIND CMA_PRES HKO_LAT HKO_LON HKO_CAT HKO_WIND HKO_PRES NEWDELHI_LAT NEWDELHI_LON NEWDELHI_GRADE NEWDELHI_WIND NEWDELHI_PRES NEWDELHI_CI NEWDELHI_DP NEWDELHI_POCI REUNION_LAT REUNION_LON REUNION_TYPE REUNION_WIND REUNION_PRES REUNION_TNUM REUNION_CI REUNION_RMW REUNION_R34_NE REUNION_R34_SE REUNION_R34_SW REUNION_R34_NW REUNION_R50_NE REUNION_R50_SE REUNION_R50_SW REUNION_R50_NW REUNION_R64_NE REUNION_R64_SE REUNION_R64_SW REUNION_R64_NW BOM_LAT BOM_LON BOM_TYPE BOM_WIND BOM_PRES BOM_TNUM BOM_CI BOM_RMW BOM_R34_NE BOM_R34_SE BOM_R34_SW BOM_R34_NW BOM_R50_NE BOM_R50_SE BOM_R50_SW BOM_R50_NW BOM_R64_NE BOM_R64_SE BOM_R64_SW BOM_R64_NW BOM_ROCI BOM_POCI BOM_EYE BOM_POS_METHOD BOM_PRES_METHOD NADI_LAT NADI_LON NADI_CAT NADI_WIND NADI_PRES WELLINGTON_LAT WELLINGTON_LON WELLINGTON_WIND WELLINGTON_PRES DS824_LAT DS824_LON DS824_STAGE DS824_WIND DS824_PRES TD9636_LAT TD9636_LON TD9636_STAGE TD9636_WIND TD9636_PRES TD9635_LAT TD9635_LON TD9635_WIND TD9635_PRES TD9635_ROCI NEUMANN_LAT NEUMANN_LON NEUMANN_CLASS NEUMANN_WIND NEUMANN_PRES MLC_LAT MLC_LON MLC_CLASS MLC_WIND MLC_PRES USA_GUST BOM_GUST BOM_GUST_PER REUNION_GUST REUNION_GUST_PER USA_SEAHGT USA_SEARAD_NE USA_SEARAD_SE USA_SEARAD_SW USA_SEARAD_NW STORM_SPEED STORM_DIR
1933286N11092 1933 66 NI BB NOT_NAMED 1933-10-13 00:00:00 TS 11.0000 92.3000 main 583 567 _________O____ -1 11.0000 92.3000 TC 30 4 336
1933286N11092 1933 66 NI BB NOT_NAMED 1933-10-13 03:00:00 TS 11.2050 92.2117 main 567 541 _________PO___ -1 11.3075 92.1675 TC 30 11.0000 92.3000 1 5 333
1933286N11092 1933 66 NI BB NOT_NAMED 1933-10-13 06:00:00 TS 11.4775 92.0513 main 541 532 _________OP___ -1 11.6000 92.0000 TC 30 11.2937 92.1283 1 6 326
1933286N11092 1933 66 NI BB NOT_NAMED 1933-10-13 09:00:00 TS 11.7428 91.8465 main 538 521 _________PP___ -1 11.8650 91.7725 TC 30 11.5799 91.9452 1 7 320
1933286N11092 1933 66 NI BB NOT_NAMED 1933-10-13 12:00:00 TS 11.9756 91.6198 main 521 516 _________OP___ -1 12.1000 91.5000 TC 30 11.8512 91.7395 1 7 314
1933286N11092 1933 66 NI BB NOT_NAMED 1933-10-13 15:00:00 TS 12.2037 91.3537 main 516 515 _________PO___ -1 12.3075 91.2075 TC 30 12.1000 91.5000 1 7 309
1933286N11092 1933 66 NI BB NOT_NAMED 1933-10-13 18:00:00 TS 12.4108 91.0603 main 521 520 _________OP___ -1 12.5000 90.9000 TC 30 12.3217 91.2206 1 7 305
1933286N11092 1933 66 NI BB NOT_NAMED 1933-10-13 21:00:00 TS 12.6113 90.7537 main 528 527 _________PP___ -1 12.7000 90.5925 TC 30 12.5226 90.9149 1 7 304
1933286N11092 1933 66 NI BB NOT_NAMED 1933-10-14 00:00:00 TS 12.8061 90.4509 main 535 535 _________OP___ -1 12.9000 90.3000 TC 30 12.7123 90.6018 1 7 304
1933286N11092 1933 66 NI BB NOT_NAMED 1933-10-14 03:00:00 TS 13.0000 90.1712 main 546 546 _________PO___ -1 13.1000 90.0424 TC 30 12.9000 90.3000 1 7 308
1933286N11092 1933 66 NI BB NOT_NAMED 1933-10-14 06:00:00 TS 13.2060 89.9198 main 559 552 _________OP___ -1 13.3000 89.8000 TC 30 13.1120 90.0396 1 6 310
1933286N11092 1933 66 NI BB NOT_NAMED 1933-10-14 09:00:00 TS 13.4149 89.6712 main 564 564 _________PP___ -1 13.5075 89.5500 TC 30 13.3223 89.7924 1 6 310
1933286N11092 1933 66 NI BB NOT_NAMED 1933-10-14 12:00:00 TS 13.6107 89.4245 main 581 576 _________OP___ -1 13.7000 89.3000 TC 30 13.5214 89.5490 1 6 308
1933286N11092 1933 66 NI BB NOT_NAMED 1933-10-14 15:00:00 TS 13.7825 89.1787 main 591 591 _________PO___ -1 13.8649 89.0575 TC 31 13.7000 89.3000 1 6 302
1933286N11092 1933 66 NI BB NOT_NAMED 1933-10-14 18:00:00 TS 13.9253 88.9120 main 616 616 _________OP___ -1 14.0000 88.8000 TC 32 13.8506 89.0239 1 6 296
1933286N11092 1933 66 NI BB NOT_NAMED 1933-10-14 21:00:00 TS 14.0438 88.6212 main 641 638 _________PP___ -1 14.1075 88.5000 TC 33 13.9800 88.7424 1 6 292
1933286N11092 1933 66 NI BB NOT_NAMED 1933-10-15 00:00:00 TS 14.1472 88.3323 main 649 626 _________OP___ -1 14.2000 88.2000 TC 34 14.0944 88.4646 1 6 291
1933286N11092 1933 66 NI BB NOT_NAMED 1933-10-15 03:00:00 TS 14.2500 88.0675 main 626 596 _________PO___ -1 14.3000 87.9350 TC 36 14.2000 88.2000 2 5 293
1933286N11092 1933 66 NI BB NOT_NAMED 1933-10-15 06:00:00 TS 14.3515 87.8343 main 588 574 _________OP___ -1 14.4000 87.7000 TC 39 14.3029 87.9686 2 5 295
1933286N11092 1933 66 NI BB NOT_NAMED 1933-10-15 09:00:00 TS 14.4498 87.6286 main 574 552 _________PP___ -1 14.4999 87.5075 TC 42 14.3997 87.7497 2 5 296
1933286N11092 1933 66 NI BB NOT_NAMED 1933-10-15 12:00:00 TS 14.5483 87.4155 main 552 529 _________OP___ -1 14.6000 87.3000 TC 45 14.4967 87.5311 2 5 293
1933286N11092 1933 66 NI BB NOT_NAMED 1933-10-15 15:00:00 TS 14.6463 87.1537 main 529 492 _________PO___ -1 14.6925 87.0075 TC 45 14.6000 87.3000 3 6 292
1933286N11092 1933 66 NI BB NOT_NAMED 1933-10-15 18:00:00 TS 14.7588 86.8757 main 492 464 _________OP___ -1 14.8000 86.7000 TC 45 14.7177 87.0515 3 6 296
1933286N11092 1933 66 NI BB NOT_NAMED 1933-10-15 21:00:00 TS 14.8923 86.6224 main 464 443 _________PP___ -1 14.9424 86.4574 TC 45 14.8423 86.7874 3 6 299
1933286N11092 1933 66 NI BB NOT_NAMED 1933-10-16 00:00:00 TS 15.0354 86.3523 main 443 407 _________OP___ -1 15.1000 86.2000 TC 45 14.9708 86.5046 3 6 297
1933286N11092 1933 66 NI BB NOT_NAMED 1933-10-16 03:00:00 TS 15.1788 86.0325 main 401 370 _________PO___ -1 15.2575 85.8650 TC 45 15.1000 86.2000 3 7 293
1933286N11092 1933 66 NI BB NOT_NAMED 1933-10-16 06:00:00 TS 15.3126 85.6797 main 370 332 _________OP___ -1 15.4000 85.5000 TC 45 15.2251 85.8594 3 7 290
1933286N11092 1933 66 NI BB NOT_NAMED 1933-10-16 09:00:00 TS 15.4251 85.3175 main 332 303 _________PP___ -1 15.5000 85.1349 TC 45 15.3502 85.5000 3 7 288
1933286N11092 1933 66 NI BB NOT_NAMED 1933-10-16 12:00:00 TS 15.5376 84.9703 main 303 266 _________OP___ -1 15.6000 84.8000 TC 45 15.4751 85.1406 3 7 292
1933286N11092 1933 66 NI BB NOT_NAMED 1933-10-16 15:00:00 TS 15.6749 84.6712 main 266 238 _________PO___ -1 15.7499 84.5425 TC 45 15.6000 84.8000 3 6 297
1933286N11092 1933 66 NI BB NOT_NAMED 1933-10-16 18:00:00 TS 15.8185 84.3977 main 238 207 _________OP___ -1 15.9000 84.3000 TC 45 15.7370 84.4953 3 6 296
1933286N11092 1933 66 NI BB NOT_NAMED 1933-10-16 21:00:00 TS 15.9437 84.1025 main 207 173 _________PP___ -1 16.0150 83.9925 TC 45 15.8723 84.2125 3 6 293
1933286N11092 1933 66 NI BB NOT_NAMED 1933-10-17 00:00:00 TS 16.0482 83.8242 main 173 149 _________OP___ -1 16.1000 83.7000 TC 45 15.9964 83.9485 3 5 291
1933286N11092 1933 66 NI BB NOT_NAMED 1933-10-17 03:00:00 TS 16.1287 83.5962 main 149 125 _________PO___ -1 16.1574 83.4924 TC 45 16.1000 83.7000 3 5 288
1933286N11092 1933 66 NI BB NOT_NAMED 1933-10-17 06:00:00 TS 16.1857 83.3762 main 125 96 _________OP___ -1 16.2000 83.3000 TC 45 16.1715 83.4523 3 5 284
1933286N11092 1933 66 NI BB NOT_NAMED 1933-10-17 09:00:00 TS 16.2362 83.1349 main 96 72 _________PP___ -1 16.2500 83.0500 TC 45 16.2224 83.2198 3 5 282
1933286N11092 1933 66 NI BB NOT_NAMED 1933-10-17 12:00:00 TS 16.2811 82.9012 main 72 54 _________OP___ -1 16.3000 82.8000 TC 45 16.2621 83.0024 3 4 282
1933286N11092 1933 66 NI BB NOT_NAMED 1933-10-17 15:00:00 TS 16.3250 82.6925 main 54 30 _________PO___ -1 16.3500 82.5850 TC 41 16.3000 82.8000 3 4 283
1933286N11092 1933 66 NI BB NOT_NAMED 1933-10-17 18:00:00 TS 16.3605 82.5274 main 30 24 _________OP___ -1 16.4000 82.4000 TC 37 16.3211 82.6548 3 3 283
1933286N11092 1933 66 NI BB NOT_NAMED 1933-10-17 21:00:00 TS 16.3870 82.4020 main 24 15 _________PP___ -1 16.4273 82.2873 TC 33 16.3467 82.5167 3 3 287
1933286N11092 1933 66 NI BB NOT_NAMED 1933-10-18 00:00:00 TS 16.4495 82.2226 main 15 0 _________OP___ -1 16.5000 82.1000 TC 30 16.3991 82.3452 3 5 292
1933286N11092 1933 66 NI BB NOT_NAMED 1933-10-18 03:00:00 TS 16.5851 81.8975 main 0 0 _________PO___ -1 16.6701 81.6951 TC 30 16.5000 82.1000 1 8 294
1933286N11092 1933 66 NI BB NOT_NAMED 1933-10-18 06:00:00 TS 16.7796 81.4485 main 0 0 _________OP___ -1 16.9000 81.2000 TC 30 16.6592 81.6970 1 10 295
1933286N11092 1933 66 NI BB NOT_NAMED 1933-10-18 09:00:00 TS 17.0018 80.9753 main 0 0 _________PP___ -1 17.1350 80.7275 TC 30 16.8687 81.2232 1 10 298
1933286N11092 1933 66 NI BB NOT_NAMED 1933-10-18 12:00:00 TS 17.2593 80.5188 main 0 0 _________OP___ -1 17.4000 80.3000 TC 30 17.1186 80.7376 1 10 304
1933286N11092 1933 66 NI BB NOT_NAMED 1933-10-18 15:00:00 TS 17.5424 80.1312 main 0 0 _________PO___ -1 17.6849 79.9624 TC 30 17.4000 80.3000 1 9 311
1933286N11092 1933 66 NI BB NOT_NAMED 1933-10-18 18:00:00 TS 17.8154 79.8397 main 0 0 _________OP___ -1 18.0000 79.7000 TC 30 17.6309 79.9795 1 7 318
1933286N11092 1933 66 NI BB NOT_NAMED 1933-10-18 21:00:00 TS 18.0947 79.6042 main 0 0 _________PP___ -1 18.2899 79.4921 TC 30 17.8996 79.7163 1 8 327
1933286N11092 1933 66 NI BB NOT_NAMED 1933-10-19 00:00:00 TS 18.4718 79.3975 main 0 0 _________OP___ -1 18.7000 79.3000 TC 30 18.2435 79.4950 1 10 336
1933286N11092 1933 66 NI BB NOT_NAMED 1933-10-19 03:00:00 TS 19.0201 79.1677 main 0 0 _________PO___ -1 19.3401 79.0354 TC 30 18.7000 79.3000 1 13 340
1933286N11092 1933 66 NI BB NOT_NAMED 1933-10-19 06:00:00 TS 19.7071 78.9203 main 0 0 _________OP___ -1 20.1000 78.8000 TC 30 19.3141 79.0406 1 15 344
1933286N11092 1933 66 NI BB NOT_NAMED 1933-10-19 09:00:00 TS 20.4400 78.7292 main 0 0 _________PP___ -1 20.8424 78.6476 TC 30 20.0376 78.8109 1 15 350
1933286N11092 1933 66 NI BB NOT_NAMED 1933-10-19 12:00:00 TS 21.2086 78.6252 main 0 0 _________OP___ -1 21.6000 78.6000 TC 30 20.8172 78.6505 1 16 356
1933286N11092 1933 66 NI BB NOT_NAMED 1933-10-19 15:00:00 TS 21.9824 78.6163 main 0 0 _________PO___ -1 22.3649 78.6327 TC 30 21.6000 78.6000 1 15 4
1933286N11092 1933 66 NI BB NOT_NAMED 1933-10-19 18:00:00 TS 22.7420 78.7435 main 0 0 _________OP___ -1 23.1000 78.8000 TC 30 22.3840 78.6870 1 16 13
1933286N11092 1933 66 NI BB NOT_NAMED 1933-10-19 21:00:00 TS 23.4874 79.0004 main 0 0 _________PP___ -1 23.8251 79.1118 TC 30 23.1496 78.8889 1 15 22
1933286N11092 1933 66 NI BB NOT_NAMED 1933-10-20 00:00:00 TS 24.1202 79.3358 main 0 0 _________OP___ -1 24.4000 79.5000 TC 30 23.8404 79.1717 1 12 30
1933286N11092 1933 66 NI BB NOT_NAMED 1933-10-20 03:00:00 TS 24.5587 79.6753 main 0 0 _________PO___ -1 24.7174 79.8506 TC 30 24.4000 79.5000 1 9 40
1933286N11092 1933 66 NI BB NOT_NAMED 1933-10-20 06:00:00 TS 24.8325 79.9916 main 0 0 _________OP___ -1 24.9000 80.2000 TC 30 24.7650 79.7832 1 8 49
1933286N11092 1933 66 NI BB NOT_NAMED 1933-10-20 09:00:00 TS 25.0531 80.3125 main 0 0 _________PP___ -1 25.1072 80.5203 TC 30 24.9989 80.1047 1 7 58
1933286N11092 1933 66 NI BB NOT_NAMED 1933-10-20 12:00:00 TS 25.2292 80.6869 main 0 0 _________OP___ -1 25.3000 80.9000 TC 30 25.1585 80.4738 1 8 66
1933286N11092 1933 66 NI BB NOT_NAMED 1933-10-20 15:00:00 TS 25.4000 81.1600 main 0 0 _________PO___ -1 25.5001 81.4200 TC 30 25.3000 80.9000 1 9 69
1933286N11092 1933 66 NI BB NOT_NAMED 1933-10-20 18:00:00 TS 25.5678 81.6509 main 0 0 _________OP___ -1 25.7000 82.0000 TC 30 25.4686 81.3891 1 10 69
1933286N11092 1933 66 NI BB NOT_NAMED 1933-10-20 21:00:00 TS 25.7591 82.1816 main 0 0 _________PP___ -1 25.9002 82.5597 TC 30 25.6650 81.9296 1 10 68
1933286N11092 1933 66 NI BB NOT_NAMED 1933-10-21 00:00:00 TS 25.9526 82.7036 main 0 0 _________OP___ -1 26.1000 83.1000 TC 30 25.8788 82.5054 1 9 68
1933286N11092 1933 66 NI BB NOT_NAMED 1933-10-21 03:00:00 NR 26.1000 83.1000 main 0 __________O___ -1 TC 26.1000 83.1000 1 8 68

IBTrACS Databaseについて

本データベースは、米国NOAAが公開する1842年以降の世界の熱帯低気圧のベストトラックデータアーカイブInternational Best Track Archive for Climate Stewardship (IBTrACS)を、ウェブで閲覧しやすい形式に変換したものです。

最終更新日:2021-10-25